Flight Track Log - Related Links

Times and Time Zones

All times are in EDT time to prevent confusion due to time zone crossing. See the SWA2871 flight status page for this flight to view local times or setup timezone preferences in your user account.

Time Position Orientation Groundspeed Altitude Reporting Facility
EDT Latitude Longitude Course Direction KTS MPH feet Rate Location/Type
Mon 07:25:36 AM 39.3000 -94.7333 180° South 122 140 1,800  Level Kansas City TRACON
Mon 07:26:06 AM 39.2667 -94.7333 180° South 170 196 3,200 2,727 Climbing Kansas City TRACON
Mon 07:27:04 AM 39.2225 -94.7222 169° South 217 250 5,800 3,176 Climbing Kansas City Center
Mon 07:28:05 AM 39.1742 -94.6564 133° Southeast 305 351 9,500 3,738 Climbing Kansas City Center
Mon 07:29:06 AM 39.1544 -94.5256 101° East 339 390 13,400 3,541 Climbing Kansas City Center
Mon 07:30:07 AM 39.1364 -94.3989 100° East 370 426 16,700 3,421 Climbing Kansas City Center
Mon 07:31:07 AM 39.1131 -94.2450 101° East 391 450 20,300 3,322 Climbing Kansas City Center
Mon 07:32:08 AM 39.0769 -94.1108 109° East 413 475 23,400 2,656 Climbing Kansas City Center
Mon 07:33:09 AM 39.0300 -93.9769 114° Southeast 429 494 25,700 2,508 Climbing Kansas City Center
Mon 07:34:10 AM 38.9750 -93.8142 113° Southeast 443 510 28,500 2,410 Climbing Kansas City Center
Mon 07:35:11 AM 38.9247 -93.6678 114° Southeast 452 520 30,600 1,967 Climbing Kansas City Center
Mon 07:36:12 AM 38.8742 -93.5150 113° Southeast 461 531 32,500 2,016 Climbing Kansas City Center
Mon 07:37:13 AM 38.8211 -93.3653 114° Southeast 461 531 34,700 2,016 Climbing Kansas City Center
Mon 07:38:14 AM 38.7678 -93.2156 115° Southeast 461 531 36,600 1,721 Climbing Kansas City Center
Mon 07:39:15 AM 38.7167 -93.0667 114° Southeast 457 526 38,200 1,180 Climbing Kansas City Center
Mon 07:40:16 AM 38.6639 -92.9183 114° Southeast 456 525 39,000 390 Climbing Kansas City Center
Mon 07:41:18 AM 38.6103 -92.7675 114° Southeast 461 531 39,000 146 Level Kansas City Center
Mon 07:42:19 AM 38.5569 -92.6161 114° Southeast 463 533 39,300 738 Climbing Kansas City Center
Mon 07:43:20 AM 38.5036 -92.4669 115° Southeast 460 529 40,500 836 Climbing Kansas City Center
Mon 07:44:21 AM 38.4492 -92.3147 115° Southeast 463 533 41,000 246 Climbing Kansas City Center
Mon 07:45:22 AM 38.3942 -92.1636 115° Southeast 465 535 41,000  Level Kansas City Center
Mon 07:46:23 AM 38.3400 -92.0117 114° Southeast 466 536 41,000  Level Kansas City Center
Mon 07:47:24 AM 38.2842 -91.8625 115° Southeast 463 533 41,000  Level Kansas City Center
Mon 07:48:25 AM 38.2386 -91.7089 111° Southeast 463 533 41,000  Level Kansas City Center
Mon 07:49:26 AM 38.2008 -91.5528 107° East 458 527 41,000  Level Kansas City Center
Mon 07:50:27 AM 38.1628 -91.3981 107° East 457 526 41,000  Level Kansas City Center
Mon 07:51:29 AM 38.1250 -91.2422 107° East 459 528 41,000  Level Kansas City Center
Mon 07:52:30 AM 38.0772 -91.0531 108° East 465 535 41,000  Level Kansas City Center
Mon 07:53:31 AM 38.0419 -90.9197 109° East 467 537 41,000  Level Kansas City Center
Mon 07:54:32 AM 38.0031 -90.7628 107° East 470 541 41,000 -197 Level Kansas City Center
Mon 07:55:33 AM 37.9628 -90.6064 108° East 469 540 40,600 -787 Descending Kansas City Center
Mon 07:56:34 AM 37.9144 -90.4208 108° East 466 536 39,400 -787 Descending Kansas City Center
Mon 07:57:35 AM 37.8758 -90.2633 107° East 471 542 39,000 -197 Descending Kansas City Center
Mon 07:58:36 AM 37.8350 -90.1072 108° East 470 541 39,000  Level Kansas City Center
Mon 07:59:38 AM 37.7950 -89.9547 108° East 465 535 39,000  Level Kansas City Center
Mon 08:00:39 AM 37.7533 -89.7983 109° East 468 539 39,000 -541 Level Kansas City Center
Mon 08:01:40 AM 37.7125 -89.6417 108° East 472 543 37,900 -1,131 Descending Kansas City Center
Mon 08:02:41 AM 37.6728 -89.4894 108° East 464 534 36,700 -1,171 Descending Kansas City Center
Mon 08:03:43 AM 37.6303 -89.3303 109° East 457 526 35,500 -1,122 Descending Kansas City Center
Mon 08:04:44 AM 37.5883 -89.1794 109° East 455 524 34,400 -1,129 Descending Kansas City Center
Mon 08:05:08 AM 37.5714 -89.1219 110° East 452 520 33,900 -1,000 Descending Memphis Center
Mon 08:06:08 AM 37.5325 -88.9683 108° East 452 520 33,000 -450 Descending Memphis Center
Mon 08:07:08 AM 37.4889 -88.8150 110° East 458 527 33,000  Level Memphis Center
Mon 08:08:08 AM 37.4392 -88.6669 113° Southeast 464 534 33,000  Level Memphis Center
Mon 08:09:08 AM 37.3808 -88.5167 116° Southeast 469 540 33,000  Level Memphis Center
Mon 08:10:08 AM 37.3222 -88.3669 116° Southeast 476 548 33,000  Level Memphis Center
Mon 08:11:08 AM 37.2656 -88.2197 116° Southeast 476 548 33,000  Level Memphis Center
Mon 08:12:08 AM 37.2022 -88.0653 117° Southeast 482 555 33,000 -271 Level Memphis Center
Mon 08:13:21 AM 37.1258 -87.8750 117° Southeast 480 552 32,400 -1,550 Descending Memphis Center
Mon 08:14:08 AM 37.0794 -87.7489 115° Southeast 476 548 29,900 -2,972 Descending Memphis Center
Mon 08:15:08 AM 37.0200 -87.6028 117° Southeast 476 548 27,100 -2,800 Descending Memphis Center
Mon 08:16:08 AM 36.9606 -87.4569 117° Southeast 470 541 24,300 -2,800 Descending Memphis Center
Mon 08:16:23 AM 36.9450 -87.4236 120° Southeast 465 535 23,600 -2,700 Descending Memphis Center
Mon 08:17:08 AM 36.9050 -87.3136 114° Southeast 464 534 21,600 -2,600 Descending Memphis Center
Mon 08:17:23 AM 36.8917 -87.2856 121° Southeast 453 521 21,000 -2,600 Descending Memphis Center
Mon 08:18:08 AM 36.8494 -87.1783 116° Southeast 452 520 19,000 -2,229 Descending Memphis Center
Mon 08:19:08 AM 36.7717 -87.0725 133° Southeast 434 499 17,100 -2,200 Descending Memphis Center
Mon 08:20:08 AM 36.6678 -87.0069 153° Southeast 412 474 14,600 -2,250 Descending Memphis Center
Mon 08:21:08 AM 36.5703 -86.9464 153° Southeast 406 467 12,600 -2,000 Descending Memphis Center
Mon 08:22:08 AM 36.4875 -86.8958 154° Southeast 386 444 10,600 -1,500 Descending Memphis Center
Mon 08:23:08 AM 36.4028 -86.8453 154° Southeast 357 411 9,600 -1,200 Descending Memphis Center
Mon 08:24:08 AM 36.3136 -86.7897 153° Southeast 333 383 8,200 -1,500 Descending Memphis Center
Mon 08:25:08 AM 36.2375 -86.7494 157° South 312 359 6,600 -1,500 Descending Memphis Center
Mon 08:26:08 AM 36.1653 -86.7758 196° South 269 310 5,200 -1,000 Descending Memphis Center
Mon 08:27:08 AM 36.0992 -86.8017 198° South 261 300 4,600 -1,050 Descending Memphis Center
Mon 08:28:08 AM 36.0372 -86.8250 197° South 241 277 3,100 -800 Descending Memphis Center
Mon 08:29:08 AM 36.0053 -86.7931 141° Southeast 175 201 3,000 -300 Descending Memphis Center
Mon 08:30:08 AM 36.0161 -86.7361 77° East 132 152 2,500 -650 Descending Memphis Center
Mon 08:31:08 AM 36.0486 -86.7089 34° Northeast 127 146 1,700 -750 Descending Memphis Center
Mon 08:32:08 AM 36.0856 -86.6944 18° North 127 146 1,000 -550 Descending Memphis Center
Mon 08:33:08 AM 36.1186 -86.6803 19° North 127 146 600 4,000 Descending Memphis Center
Mon 08:34:08 AM 36.1558 -86.6656 18° North 127 146 9,000 8,400 Climbing Memphis Center
Mon 08:36:00 AM 36.1167 -86.6667 202° Southwest  Level FlightAware Approximate
Mon 08:43:00 AM 36.1245 -86.6782 202° Southwest  Level Estimated
Mon 08:44:00 AM 36.1245 -86.6782 202° Southwest  Level Estimated
Mon 08:45:00 AM 36.1245 -86.6782 202° Southwest  Level Estimated

Login

Don't have an account? Register now (free) for customized features, flight alerts, and more!